FMMI/TNR METAR and TAF weather

Enter ICAO airport designator
Station Type Date Time Source
FMMI METAR 2019/06/19 03:00 UTC NOAA

FMMI 190300Z VRB02KT 9999 FEW010 BKN020 12/11 Q1023 NOSIG


Station Type Date Time Source
FMMI Decoded METAR 2019/06/19 03:00 UTC NOAA

Antananarivo / Ivato, Madagascar (FMMI) 18-48S 047-29E 1276M
Jun 18, 2019 - 11:00 PM EDT / 2019.06.19 0300 UTC
Wind: Variable at 2 MPH (2 KT):0
Visibility: greater than 7 mile(s):0
Sky conditions: mostly cloudy
Temperature: 53 F (12 C)
Dew Point: 51 F (11 C)
Relative Humidity: 93%
Pressure (altimeter): 30.21 in. Hg (1023 hPa)
ob: FMMI 190300Z VRB02KT 9999 FEW010 BKN020 12/11 Q1023 NOSIG
cycle: 3

Station Type Date Time Source
FMMI TAF 2019/06/18 18:06 UTC NOAA

TAF FMMI 181700Z 1818/1924 08008KT 9999 SCT017 BKN020 PROB30
TEMPO 1821/1904 4500 DZRA

Example: see airport list